createdAt,value
2019-04-16T00:00:44.991Z,83.80
2019-04-16T00:03:13.408Z,83.60
2019-04-16T00:05:58.492Z,83.10
2019-04-16T00:08:30.217Z,83.10
2019-04-16T00:11:00.444Z,83.60
2019-04-16T00:13:47.023Z,83.30
2019-04-16T00:16:15.628Z,83.10
2019-04-16T00:18:56.609Z,83.40
2019-04-16T00:21:18.612Z,83.70
2019-04-16T00:23:57.679Z,84.60
2019-04-16T00:26:26.767Z,84.10
2019-04-16T00:28:56.605Z,84.10
2019-04-16T00:31:25.203Z,84.60
2019-04-16T00:33:53.631Z,84.80
2019-04-16T00:36:22.088Z,84.00
2019-04-16T00:38:53.910Z,84.60
2019-04-16T00:41:20.762Z,84.80
2019-04-16T00:43:49.192Z,84.60
2019-04-16T00:46:17.647Z,84.60
2019-04-16T00:48:46.081Z,85.20
2019-04-16T00:51:14.801Z,84.80
2019-04-16T00:53:43.225Z,84.60
2019-04-16T00:56:13.412Z,84.70
2019-04-16T00:58:42.820Z,84.70
2019-04-16T01:01:11.351Z,84.90
2019-04-16T01:03:39.780Z,84.50
2019-04-16T01:06:08.485Z,84.60
2019-04-16T01:08:37.038Z,85.30
2019-04-16T01:11:05.494Z,85.30
2019-04-16T01:13:33.915Z,85.50
2019-04-16T01:16:03.792Z,86.00
2019-04-16T01:18:32.715Z,85.70
2019-04-16T01:21:03.892Z,87.10
2019-04-16T01:23:32.322Z,89.10
2019-04-16T01:26:00.791Z,86.60
2019-04-16T01:28:33.264Z,86.20
2019-04-16T01:31:19.808Z,86.80
2019-04-16T01:33:55.680Z,85.90
2019-04-16T01:36:25.776Z,85.30
2019-04-16T01:39:14.920Z,85.30
2019-04-16T01:41:28.995Z,85.90
2019-04-16T01:43:58.183Z,85.90
2019-04-16T01:46:26.949Z,86.60
2019-04-16T01:48:55.768Z,86.40
2019-04-16T01:51:24.219Z,86.40
2019-04-16T01:53:53.025Z,86.10
2019-04-16T01:56:21.577Z,86.40
2019-04-16T01:58:50.005Z,86.50
2019-04-16T02:01:18.432Z,86.50
2019-04-16T02:03:48.856Z,86.50
2019-04-16T02:06:17.096Z,86.30
2019-04-16T02:08:45.566Z,86.60
2019-04-16T02:11:14.340Z,86.40
2019-04-16T02:13:45.843Z,86.40
2019-04-16T02:16:13.008Z,86.00
2019-04-16T02:18:41.459Z,85.90
2019-04-16T02:21:11.143Z,86.00
2019-04-16T02:23:39.856Z,86.10
2019-04-16T02:26:08.329Z,86.70
2019-04-16T02:28:36.814Z,86.30
2019-04-16T02:31:13.725Z,86.00
2019-04-16T02:33:35.415Z,86.10
2019-04-16T02:36:03.971Z,86.60
2019-04-16T02:38:32.427Z,86.50
2019-04-16T02:41:00.852Z,86.50
2019-04-16T02:43:29.371Z,86.00
2019-04-16T02:45:58.810Z,86.10
2019-04-16T02:48:27.364Z,86.50
2019-04-16T02:51:05.280Z,86.00
2019-04-16T02:53:38.216Z,85.70
2019-04-16T02:56:18.725Z,86.20
2019-04-16T02:58:46.296Z,86.60
2019-04-16T03:01:31.457Z,86.50
2019-04-16T03:04:04.402Z,86.30
2019-04-16T03:06:32.859Z,86.50
2019-04-16T03:09:01.279Z,86.30
2019-04-16T03:11:30.244Z,86.30
2019-04-16T03:13:59.495Z,86.10
2019-04-16T03:16:32.567Z,85.70
2019-04-16T03:19:04.580Z,86.00
2019-04-16T03:21:33.036Z,86.10
2019-04-16T03:24:01.462Z,86.20
2019-04-16T03:26:29.924Z,86.10
2019-04-16T03:28:59.191Z,86.40
2019-04-16T03:31:27.980Z,86.50
2019-04-16T03:33:56.473Z,86.60
2019-04-16T03:36:26.542Z,86.20
2019-04-16T03:38:55.404Z,86.20
2019-04-16T03:41:25.073Z,86.40
2019-04-16T03:43:54.004Z,86.40
2019-04-16T03:46:22.460Z,86.80
2019-04-16T03:48:52.622Z,86.70
2019-04-16T03:51:21.343Z,87.10
2019-04-16T03:53:50.380Z,87.00
2019-04-16T03:56:18.827Z,87.10
2019-04-16T03:58:47.290Z,86.90
2019-04-16T04:01:15.870Z,87.30
2019-04-16T04:03:44.344Z,87.80
2019-04-16T04:06:12.831Z,87.70
2019-04-16T04:08:41.552Z,87.40
2019-04-16T04:11:10.673Z,87.10
2019-04-16T04:13:39.676Z,86.60
2019-04-16T04:16:08.173Z,86.60
2019-04-16T04:18:36.635Z,86.70
2019-04-16T04:21:05.047Z,86.60
2019-04-16T04:23:33.511Z,86.40
2019-04-16T04:26:01.927Z,86.90
2019-04-16T04:28:30.380Z,86.80
2019-04-16T04:31:00.765Z,86.80
2019-04-16T04:33:41.676Z,86.60
2019-04-16T04:36:10.339Z,86.30
2019-04-16T04:38:39.327Z,86.50
2019-04-16T04:41:08.291Z,86.60
2019-04-16T04:43:36.828Z,86.70
2019-04-16T04:46:05.469Z,86.70
2019-04-16T04:48:34.009Z,87.10
2019-04-16T04:51:06.962Z,85.90
2019-04-16T04:53:32.795Z,86.20
2019-04-16T04:56:01.479Z,87.40
2019-04-16T04:58:33.839Z,88.20
2019-04-16T05:01:00.398Z,88.40
2019-04-16T05:03:39.719Z,87.80
2019-04-16T05:06:18.651Z,87.50
2019-04-16T05:08:47.112Z,88.20
2019-04-16T05:11:16.844Z,87.60
2019-04-16T05:13:45.585Z,88.00
2019-04-16T05:16:14.017Z,87.40
2019-04-16T05:18:42.696Z,87.30
2019-04-16T05:21:11.343Z,87.80
2019-04-16T05:23:39.818Z,87.70
2019-04-16T05:26:09.849Z,87.90
2019-04-16T05:28:44.476Z,87.60
2019-04-16T05:31:08.771Z,88.10
2019-04-16T05:33:38.078Z,87.60
2019-04-16T05:36:06.733Z,88.10
2019-04-16T05:38:35.185Z,87.90
2019-04-16T05:41:13.136Z,88.60
2019-04-16T05:43:33.856Z,87.40
2019-04-16T05:46:02.285Z,88.20
2019-04-16T05:48:31.032Z,87.90
2019-04-16T05:50:59.960Z,87.10
2019-04-16T05:53:29.191Z,87.50
2019-04-16T05:56:14.456Z,87.80
2019-04-16T05:58:42.908Z,87.30
2019-04-16T06:01:13.767Z,88.20
2019-04-16T06:03:42.711Z,87.50
2019-04-16T06:06:11.401Z,87.50
2019-04-16T06:08:41.613Z,87.30
2019-04-16T06:11:10.001Z,88.30
2019-04-16T06:13:44.362Z,88.30
2019-04-16T06:16:25.161Z,88.10
2019-04-16T06:19:03.721Z,87.60
2019-04-16T06:21:45.843Z,87.00
2019-04-16T06:24:18.839Z,87.90
2019-04-16T06:26:48.899Z,88.00
2019-04-16T06:29:21.937Z,88.50
2019-04-16T06:32:08.466Z,88.20
2019-04-16T06:34:57.319Z,87.70
2019-04-16T06:37:30.156Z,87.30
2019-04-16T06:40:08.951Z,86.80
2019-04-16T06:42:41.973Z,90.20
2019-04-16T06:45:14.871Z,87.20
2019-04-16T06:47:47.655Z,87.00
2019-04-16T06:50:39.560Z,86.50
2019-04-16T06:53:10.327Z,86.50
2019-04-16T06:55:43.159Z,87.30
2019-04-16T06:58:16.710Z,87.70
2019-04-16T07:00:45.105Z,85.90
2019-04-16T07:03:26.051Z,86.10
2019-04-16T07:06:08.020Z,86.20
2019-04-16T07:08:41.966Z,86.40
2019-04-16T07:11:12.147Z,87.00
2019-04-16T07:13:42.253Z,85.10
2019-04-16T07:16:11.072Z,85.40
2019-04-16T07:18:39.563Z,84.40
2019-04-16T07:21:07.984Z,84.30
2019-04-16T07:23:37.125Z,83.90
2019-04-16T07:26:05.744Z,84.50
2019-04-16T07:28:35.859Z,83.30
2019-04-16T07:31:32.729Z,82.00
2019-04-16T07:33:55.783Z,82.20
2019-04-16T07:36:35.533Z,81.10
2019-04-16T07:39:09.655Z,80.80
2019-04-16T07:41:43.213Z,80.80
2019-04-16T07:44:13.977Z,80.50
2019-04-16T07:47:00.348Z,80.70
2019-04-16T07:49:30.484Z,80.10
2019-04-16T07:52:17.324Z,80.30
2019-04-16T07:55:03.828Z,80.00
2019-04-16T07:57:32.274Z,81.30
2019-04-16T08:00:00.703Z,80.20
2019-04-16T08:02:29.172Z,80.10
2019-04-16T08:04:57.902Z,79.60
2019-04-16T08:07:26.370Z,78.60
2019-04-16T08:09:54.930Z,78.00
2019-04-16T08:12:30.536Z,77.50
2019-04-16T08:14:53.666Z,77.50
2019-04-16T08:17:22.123Z,74.40
2019-04-16T08:19:50.547Z,75.60
2019-04-16T08:22:19.045Z,75.10
2019-04-16T08:24:49.209Z,73.70
2019-04-16T08:27:19.212Z,72.10
2019-04-16T08:29:48.240Z,74.60
2019-04-16T08:32:17.043Z,74.00
2019-04-16T08:34:45.601Z,74.30
2019-04-16T08:37:14.037Z,73.00
2019-04-16T08:39:42.784Z,73.40
2019-04-16T08:42:11.212Z,72.30
2019-04-16T08:44:39.669Z,73.50
2019-04-16T08:47:12.075Z,69.20
2019-04-16T08:49:39.639Z,68.00
2019-04-16T08:52:10.198Z,69.70
2019-04-16T08:54:38.303Z,70.30
2019-04-16T08:57:07.154Z,71.20
2019-04-16T08:59:35.627Z,70.10
2019-04-16T09:02:04.051Z,67.40
2019-04-16T09:04:34.659Z,68.70
2019-04-16T09:07:11.391Z,66.90
2019-04-16T09:09:46.482Z,65.60
2019-04-16T09:12:14.118Z,65.20
2019-04-16T09:14:44.291Z,66.30
2019-04-16T09:17:17.325Z,67.40
2019-04-16T09:19:47.419Z,67.60
2019-04-16T09:22:17.078Z,67.10
2019-04-16T09:24:52.865Z,67.60
2019-04-16T09:27:25.904Z,67.30
2019-04-16T09:30:04.021Z,66.30
2019-04-16T09:32:48.707Z,65.70
2019-04-16T09:35:20.299Z,67.00
2019-04-16T09:38:09.358Z,65.90
2019-04-16T09:40:49.294Z,65.90
2019-04-16T09:43:25.968Z,66.60
2019-04-16T09:45:54.430Z,63.10
2019-04-16T09:48:22.851Z,64.10
2019-04-16T09:50:51.311Z,63.30
2019-04-16T09:53:32.182Z,65.80
2019-04-16T09:55:50.625Z,62.70
2019-04-16T09:58:24.224Z,62.30
2019-04-16T10:01:00.095Z,63.90
2019-04-16T10:03:39.128Z,63.90
2019-04-16T10:06:07.871Z,61.90
2019-04-16T10:08:36.295Z,63.00
2019-04-16T10:11:06.285Z,63.10
2019-04-16T10:13:36.603Z,60.60
2019-04-16T10:16:05.334Z,60.10
2019-04-16T10:18:35.069Z,60.80
2019-04-16T10:21:04.180Z,59.20
2019-04-16T10:23:37.177Z,59.20
2019-04-16T10:26:05.955Z,59.60
2019-04-16T10:28:37.057Z,58.60
2019-04-16T10:31:06.247Z,59.40
2019-04-16T10:33:34.754Z,59.80
2019-04-16T10:36:04.661Z,59.10
2019-04-16T10:38:40.713Z,59.60
2019-04-16T10:41:13.509Z,57.60
2019-04-16T10:44:01.679Z,60.10
2019-04-16T10:46:34.887Z,57.00
2019-04-16T10:49:20.148Z,57.50
2019-04-16T10:51:50.360Z,57.40
2019-04-16T10:54:29.656Z,56.00
2019-04-16T10:57:16.100Z,56.40
2019-04-16T10:59:46.208Z,56.90
2019-04-16T11:02:32.876Z,57.20
2019-04-16T11:05:03.268Z,55.20
2019-04-16T11:07:36.000Z,54.70
2019-04-16T11:10:06.866Z,56.80
2019-04-16T11:12:35.276Z,56.20
2019-04-16T11:15:04.161Z,55.10
2019-04-16T11:17:32.615Z,55.50
2019-04-16T11:20:01.584Z,54.50
2019-04-16T11:22:30.083Z,54.90
2019-04-16T11:24:58.572Z,55.00
2019-04-16T11:27:27.032Z,55.70
2019-04-16T11:29:55.459Z,52.90
2019-04-16T11:32:25.570Z,51.60
2019-04-16T11:34:54.082Z,52.30
2019-04-16T11:37:22.532Z,54.30
2019-04-16T11:39:51.041Z,50.10
2019-04-16T11:42:19.497Z,51.10
2019-04-16T11:44:50.237Z,51.40
2019-04-16T11:47:18.184Z,51.00
2019-04-16T11:49:46.685Z,51.20
2019-04-16T11:52:15.210Z,50.30
2019-04-16T11:54:46.805Z,48.30
2019-04-16T11:57:13.990Z,48.60
2019-04-16T11:59:42.508Z,49.60
2019-04-16T12:02:12.646Z,46.90
2019-04-16T12:04:45.233Z,46.80
2019-04-16T12:07:21.194Z,46.30
2019-04-16T12:10:03.469Z,44.20
2019-04-16T12:12:36.640Z,44.80
2019-04-16T12:15:13.357Z,46.60
2019-04-16T12:17:55.748Z,48.20
2019-04-16T12:20:42.107Z,47.60
2019-04-16T12:23:12.245Z,46.80
2019-04-16T12:25:54.732Z,44.90
2019-04-16T12:28:27.480Z,44.50
2019-04-16T12:31:16.702Z,47.60
2019-04-16T12:33:45.987Z,44.50
2019-04-16T12:36:32.652Z,42.80
2019-04-16T12:39:08.753Z,41.80
2019-04-16T12:41:54.489Z,45.40
2019-04-16T12:44:27.121Z,44.40
2019-04-16T12:47:00.049Z,46.00
2019-04-16T12:49:46.433Z,43.10
2019-04-16T12:52:32.766Z,44.60
2019-04-16T12:55:19.334Z,41.30
2019-04-16T12:57:52.152Z,43.20
2019-04-16T13:00:26.076Z,42.80
2019-04-16T13:03:10.541Z,42.70
2019-04-16T13:05:44.653Z,44.10
2019-04-16T13:08:15.305Z,46.30
2019-04-16T13:10:53.980Z,42.70
2019-04-16T13:13:40.406Z,42.30
2019-04-16T13:16:13.206Z,42.60
2019-04-16T13:18:59.413Z,42.50
2019-04-16T13:21:29.511Z,43.70
2019-04-16T13:24:02.265Z,41.30
2019-04-16T13:26:32.418Z,43.20
2019-04-16T13:29:02.477Z,43.80
2019-04-16T13:31:30.936Z,43.00
2019-04-16T13:33:59.361Z,40.90
2019-04-16T13:36:28.079Z,40.90
2019-04-16T13:38:58.263Z,43.80
2019-04-16T13:41:27.161Z,42.50
2019-04-16T13:44:17.234Z,41.80
2019-04-16T13:46:45.945Z,43.00
2019-04-16T13:49:24.360Z,41.60
2019-04-16T13:51:52.403Z,44.20
2019-04-16T13:54:22.455Z,44.40
2019-04-16T13:56:52.547Z,42.30
2019-04-16T13:59:30.253Z,42.20
2019-04-16T14:02:02.708Z,44.90
2019-04-16T14:04:31.918Z,41.30
2019-04-16T14:07:00.467Z,43.20
2019-04-16T14:09:28.883Z,40.60
2019-04-16T14:11:57.355Z,41.10
2019-04-16T14:14:25.805Z,42.20
2019-04-16T14:16:54.320Z,43.20
2019-04-16T14:19:23.080Z,44.30
2019-04-16T14:21:51.540Z,43.80
2019-04-16T14:24:19.984Z,42.90
2019-04-16T14:26:48.457Z,43.40
2019-04-16T14:29:16.908Z,42.20
2019-04-16T14:31:51.241Z,40.50
2019-04-16T14:34:23.924Z,40.80
2019-04-16T14:36:53.247Z,42.30
2019-04-16T14:39:33.164Z,42.50
2019-04-16T14:42:01.617Z,42.80
2019-04-16T14:44:34.516Z,41.20
2019-04-16T14:47:02.109Z,42.70
2019-04-16T14:49:30.659Z,41.50
2019-04-16T14:52:01.982Z,42.60
2019-04-16T14:54:42.755Z,41.10
2019-04-16T14:57:11.535Z,39.70
2019-04-16T14:59:41.757Z,40.10
2019-04-16T15:02:11.817Z,41.20
2019-04-16T15:04:58.321Z,40.20
2019-04-16T15:07:44.334Z,42.30
2019-04-16T15:10:30.752Z,40.80
2019-04-16T15:13:17.055Z,41.20
2019-04-16T15:15:47.153Z,43.70
2019-04-16T15:18:17.211Z,42.80
2019-04-16T15:21:03.980Z,44.20
2019-04-16T15:23:35.560Z,43.20
2019-04-16T15:26:11.856Z,43.70
2019-04-16T15:28:57.261Z,43.60
2019-04-16T15:31:33.713Z,45.40
2019-04-16T15:34:22.150Z,44.30
2019-04-16T15:37:01.043Z,44.50
2019-04-16T15:39:36.893Z,44.70
2019-04-16T15:42:16.364Z,40.10
2019-04-16T15:44:44.484Z,40.60
2019-04-16T15:47:14.979Z,42.60
2019-04-16T15:49:49.669Z,42.60
2019-04-16T15:52:22.752Z,40.60
2019-04-16T15:54:53.093Z,41.10
2019-04-16T15:57:39.463Z,41.30
2019-04-16T16:00:26.365Z,44.10
2019-04-16T16:03:08.764Z,43.00
2019-04-16T16:05:44.548Z,44.40
2019-04-16T16:08:14.628Z,43.60
2019-04-16T16:10:45.454Z,41.40
2019-04-16T16:13:14.518Z,40.80
2019-04-16T16:15:43.001Z,42.40
2019-04-16T16:18:11.427Z,42.60
2019-04-16T16:20:39.880Z,40.80
2019-04-16T16:23:08.312Z,43.20
2019-04-16T16:25:41.143Z,43.40
2019-04-16T16:28:07.219Z,41.40
2019-04-16T16:30:36.201Z,42.10
2019-04-16T16:33:04.692Z,42.40
2019-04-16T16:35:34.995Z,41.80
2019-04-16T16:38:03.648Z,41.20
2019-04-16T16:40:32.192Z,41.80
2019-04-16T16:43:00.949Z,42.40
2019-04-16T16:45:40.334Z,41.90
2019-04-16T16:48:08.827Z,42.30
2019-04-16T16:50:37.317Z,41.70
2019-04-16T16:53:10.631Z,42.10
2019-04-16T16:55:40.726Z,43.40
2019-04-16T16:58:10.855Z,41.50
2019-04-16T17:00:43.798Z,41.50
2019-04-16T17:03:25.860Z,42.10
2019-04-16T17:05:54.336Z,42.20
2019-04-16T17:08:22.756Z,42.90
2019-04-16T17:10:51.214Z,43.10
2019-04-16T17:13:21.169Z,44.20
2019-04-16T17:15:49.864Z,44.90
2019-04-16T17:18:18.372Z,44.80
2019-04-16T17:20:50.035Z,43.00
2019-04-16T17:23:17.381Z,43.50
2019-04-16T17:25:45.947Z,43.10
2019-04-16T17:28:14.376Z,43.60
2019-04-16T17:30:42.868Z,44.30
2019-04-16T17:33:11.343Z,44.90
2019-04-16T17:35:39.771Z,45.30
2019-04-16T17:38:08.235Z,45.80
2019-04-16T17:40:38.291Z,46.20
2019-04-16T17:43:13.894Z,46.80
2019-04-16T17:45:51.945Z,46.90
2019-04-16T17:48:28.126Z,47.60
2019-04-16T17:51:00.755Z,47.90
2019-04-16T17:53:30.895Z,48.20
2019-04-16T17:56:17.233Z,48.50
2019-04-16T17:58:47.374Z,48.60
2019-04-16T18:01:20.367Z,49.10
2019-04-16T18:04:10.480Z,49.40
2019-04-16T18:06:54.693Z,49.70
2019-04-16T18:09:33.758Z,50.10
2019-04-16T18:12:16.967Z,50.00
2019-04-16T18:14:59.436Z,50.20
2019-04-16T18:17:47.381Z,50.60
2019-04-16T18:20:25.712Z,50.70
2019-04-16T18:22:58.528Z,51.10
2019-04-16T18:25:54.891Z,51.20
2019-04-16T18:28:12.722Z,51.60
2019-04-16T18:30:48.280Z,51.80
2019-04-16T18:33:30.319Z,51.70
2019-04-16T18:36:01.898Z,52.00
2019-04-16T18:38:37.203Z,52.70
2019-04-16T18:41:13.292Z,52.20
2019-04-16T18:43:59.602Z,52.10
2019-04-16T18:46:41.859Z,52.50
2019-04-16T18:49:17.476Z,52.60
2019-04-16T18:51:45.061Z,52.90
2019-04-16T18:54:15.038Z,53.10
2019-04-16T18:56:43.714Z,53.40
2019-04-16T18:59:12.231Z,53.80
2019-04-16T19:01:42.304Z,53.70
2019-04-16T19:04:14.412Z,53.90
2019-04-16T19:06:42.836Z,53.90
2019-04-16T19:09:11.308Z,54.00
2019-04-16T19:11:39.745Z,54.20
2019-04-16T19:14:10.342Z,54.30
2019-04-16T19:16:38.448Z,54.60
2019-04-16T19:19:07.056Z,54.40
2019-04-16T19:21:35.472Z,54.60
2019-04-16T19:24:03.999Z,55.00
2019-04-16T19:26:32.462Z,54.90
2019-04-16T19:29:00.912Z,55.10
2019-04-16T19:31:29.327Z,55.30
2019-04-16T19:33:57.839Z,55.40
2019-04-16T19:36:27.482Z,55.50
2019-04-16T19:38:56.441Z,55.60
2019-04-16T19:41:24.868Z,55.50
2019-04-16T19:43:53.742Z,55.50
2019-04-16T19:46:22.239Z,55.70
2019-04-16T19:48:50.723Z,55.80
2019-04-16T19:51:19.729Z,56.00
2019-04-16T19:53:48.595Z,56.10
2019-04-16T19:56:18.501Z,56.10
2019-04-16T19:58:48.186Z,56.20
2019-04-16T20:01:16.699Z,56.30
2019-04-16T20:03:45.162Z,56.50
2019-04-16T20:06:13.585Z,57.20
2019-04-16T20:08:42.045Z,57.40
2019-04-16T20:11:10.544Z,57.20
2019-04-16T20:13:39.001Z,57.20
2019-04-16T20:16:07.518Z,57.00
2019-04-16T20:18:50.314Z,57.10
2019-04-16T20:21:06.121Z,57.20
2019-04-16T20:23:34.581Z,57.30
2019-04-16T20:26:03.371Z,57.30
2019-04-16T20:28:31.997Z,57.30
2019-04-16T20:31:03.727Z,57.10
2019-04-16T20:33:31.962Z,58.60
2019-04-16T20:36:00.487Z,57.80
2019-04-16T20:38:29.997Z,58.10
2019-04-16T20:40:58.549Z,58.10
2019-04-16T20:43:27.010Z,58.80
2019-04-16T20:45:55.826Z,59.80
2019-04-16T20:48:24.300Z,59.30
2019-04-16T20:50:53.650Z,59.00
2019-04-16T20:53:22.902Z,59.60
2019-04-16T20:55:51.392Z,59.90
2019-04-16T20:58:19.852Z,60.00
2019-04-16T21:00:49.923Z,60.70
2019-04-16T21:03:22.270Z,60.70
2019-04-16T21:05:58.066Z,60.70
2019-04-16T21:08:24.404Z,60.60
2019-04-16T21:10:48.894Z,60.40
2019-04-16T21:13:17.348Z,60.30
2019-04-16T21:15:45.775Z,60.20
2019-04-16T21:18:14.205Z,60.00
2019-04-16T21:20:42.668Z,60.10
2019-04-16T21:23:11.099Z,60.00
2019-04-16T21:25:39.635Z,60.00
2019-04-16T21:28:12.520Z,60.20
2019-04-16T21:30:43.401Z,59.90
2019-04-16T21:33:13.455Z,60.40
2019-04-16T21:35:46.507Z,60.00
2019-04-16T21:38:19.166Z,60.00
2019-04-16T21:40:47.640Z,60.40
2019-04-16T21:43:16.128Z,60.70
2019-04-16T21:45:45.557Z,61.10
2019-04-16T21:48:14.212Z,61.50
2019-04-16T21:50:44.530Z,62.20
2019-04-16T21:53:12.887Z,62.00
2019-04-16T21:55:41.339Z,62.10
2019-04-16T21:58:09.756Z,62.10
2019-04-16T22:00:39.958Z,61.90
2019-04-16T22:03:10.999Z,62.10
2019-04-16T22:05:39.475Z,61.90
2019-04-16T22:08:07.982Z,62.10
2019-04-16T22:10:36.513Z,62.50
2019-04-16T22:13:05.172Z,63.10
2019-04-16T22:15:33.618Z,63.70
2019-04-16T22:18:07.415Z,63.70
2019-04-16T22:20:35.638Z,63.80
2019-04-16T22:23:02.375Z,63.80
2019-04-16T22:25:30.836Z,64.50
2019-04-16T22:27:59.273Z,64.50
2019-04-16T22:30:27.732Z,64.90
2019-04-16T22:32:56.222Z,64.60
2019-04-16T22:35:24.738Z,64.60
2019-04-16T22:37:53.439Z,64.50
2019-04-16T22:40:23.632Z,65.20
2019-04-16T22:43:08.020Z,65.30
2019-04-16T22:45:40.496Z,65.90
2019-04-16T22:48:08.928Z,66.10
2019-04-16T22:50:37.992Z,67.20
2019-04-16T22:53:07.179Z,67.60
2019-04-16T22:55:36.256Z,67.50
2019-04-16T22:58:05.022Z,67.70
2019-04-16T23:00:35.543Z,67.70
2019-04-16T23:03:04.036Z,67.90
2019-04-16T23:05:32.491Z,68.10
2019-04-16T23:08:00.916Z,68.50
2019-04-16T23:10:29.378Z,68.80
2019-04-16T23:13:00.414Z,69.20
2019-04-16T23:15:28.259Z,70.10
2019-04-16T23:17:56.679Z,70.30
2019-04-16T23:20:29.623Z,70.70
2019-04-16T23:22:55.277Z,71.20
2019-04-16T23:25:26.771Z,72.60
2019-04-16T23:27:53.978Z,71.50
2019-04-16T23:30:22.434Z,72.20
2019-04-16T23:32:51.109Z,72.30
2019-04-16T23:35:19.565Z,72.40
2019-04-16T23:37:47.983Z,72.80
2019-04-16T23:40:16.435Z,72.40
2019-04-16T23:42:47.462Z,72.90
2019-04-16T23:45:21.467Z,73.20
2019-04-16T23:47:57.550Z,73.60
2019-04-16T23:50:44.876Z,73.60
2019-04-16T23:53:11.052Z,73.90
2019-04-16T23:55:41.135Z,74.10
2019-04-16T23:58:11.205Z,74.30
